LFPN 181530Z AUTO 29010KT 260V330 CAVOK 28/14 Q1014 TEMPO 4000 SHRA SCT040TCU

ElémentsDécodage
LFPN Station météo située sur l'aérodrome de TOUSSUS-LE-NOBLE
181530Z émis le 18 du mois à 15h30 UTC
AUTO Bulletin édité par un automate
29010KT vent du 290°, 10 noeuds
260V330 vent de direction variable entre 260° et 330°
CAVOK Ceiling And Visibility OK
- Visibilité de 10 Km ou plus
- Pas de nuage au-dessous de 1500m ou au-dessous de l'altitude minimale du secteur la plus élevée (si>1500m) et absence de CB
- pas de temps présent significatif
28/14 température 28°C, point de rosée 14°C
 soit une humidité relative de 42%
Q1014 la pression au niveau de la mer (QNH) est de 1014 hPa
TEMPO fluctuation temporaire prévue
4000 visibilité horizontale de 4000 mètres
SHRA averse(s) de pluie
SCT040TCU nuages épars (3/8 à 4/8) à 4000 pieds
 présence de cumulus congestus